sensor_id;sensor_type;location;lat;lon;timestamp;P1;durP1;ratioP1;P2;durP2;ratioP2
55270;SDS011;41132;47.162;9.470;2023-01-19T03:18:11;9.07;;;4.07;;
55270;SDS011;41132;47.162;9.470;2023-01-19T03:20:39;6.28;;;3.40;;
55270;SDS011;41132;47.162;9.470;2023-01-19T03:33:28;7.10;;;3.92;;
55270;SDS011;41132;47.162;9.470;2023-01-19T03:35:57;6.60;;;3.63;;
55270;SDS011;41132;47.162;9.470;2023-01-19T03:41:06;6.80;;;3.47;;
55270;SDS011;41132;47.162;9.470;2023-01-19T03:43:35;8.90;;;3.85;;
55270;SDS011;41132;47.162;9.470;2023-01-19T03:46:03;8.43;;;3.97;;
55270;SDS011;41132;47.162;9.470;2023-01-19T03:48:31;7.95;;;4.30;;
55270;SDS011;41132;47.162;9.470;2023-01-19T03:50:58;6.05;;;3.30;;
55270;SDS011;41132;47.162;9.470;2023-01-19T03:53:28;10.77;;;3.83;;
55270;SDS011;41132;47.162;9.470;2023-01-19T03:55:53;10.70;;;4.35;;
55270;SDS011;41132;47.162;9.470;2023-01-19T03:58:19;8.30;;;3.78;;
55270;SDS011;41132;47.162;9.470;2023-01-19T04:00:46;11.00;;;3.90;;
55270;SDS011;41132;47.162;9.470;2023-01-19T04:03:12;7.32;;;4.18;;
55270;SDS011;41132;47.162;9.470;2023-01-19T04:05:39;6.97;;;3.55;;
55270;SDS011;41132;47.162;9.470;2023-01-19T04:08:04;7.03;;;3.45;;
55270;SDS011;41132;47.162;9.470;2023-01-19T04:10:30;7.15;;;4.22;;
55270;SDS011;41132;47.162;9.470;2023-01-19T04:12:56;8.35;;;4.28;;
55270;SDS011;41132;47.162;9.470;2023-01-19T04:15:22;9.32;;;4.20;;
55270;SDS011;41132;47.162;9.470;2023-01-19T04:17:48;6.85;;;3.88;;
55270;SDS011;41132;47.162;9.470;2023-01-19T04:20:14;6.70;;;4.07;;
55270;SDS011;41132;47.162;9.470;2023-01-19T04:25:15;9.25;;;4.57;;
55270;SDS011;41132;47.162;9.470;2023-01-19T04:30:16;8.20;;;4.35;;
55270;SDS011;41132;47.162;9.470;2023-01-19T04:32:41;7.82;;;4.13;;
55270;SDS011;41132;47.162;9.470;2023-01-19T04:35:08;8.00;;;4.47;;
55270;SDS011;41132;47.162;9.470;2023-01-19T04:37:33;8.25;;;4.10;;
55270;SDS011;41132;47.162;9.470;2023-01-19T04:39:59;7.20;;;4.00;;
55270;SDS011;41132;47.162;9.470;2023-01-19T04:42:24;10.32;;;4.95;;
55270;SDS011;41132;47.162;9.470;2023-01-19T04:44:51;7.32;;;4.28;;
55270;SDS011;41132;47.162;9.470;2023-01-19T04:47:17;6.80;;;4.20;;
55270;SDS011;41132;47.162;9.470;2023-01-19T04:49:43;9.15;;;4.55;;
55270;SDS011;41132;47.162;9.470;2023-01-19T04:52:08;8.23;;;4.53;;
55270;SDS011;41132;47.162;9.470;2023-01-19T04:54:34;6.93;;;4.13;;
55270;SDS011;41132;47.162;9.470;2023-01-19T04:56:59;7.07;;;4.20;;
55270;SDS011;41132;47.162;9.470;2023-01-19T05:02:00;7.90;;;4.63;;
55270;SDS011;41132;47.162;9.470;2023-01-19T05:04:25;7.13;;;3.70;;
55270;SDS011;41132;47.162;9.470;2023-01-19T05:06:50;7.07;;;4.07;;
55270;SDS011;41132;47.162;9.470;2023-01-19T05:14:26;8.30;;;4.03;;
55270;SDS011;41132;47.162;9.470;2023-01-19T05:16:51;7.30;;;4.40;;
55270;SDS011;41132;47.162;9.470;2023-01-19T05:19:17;8.27;;;4.50;;
55270;SDS011;41132;47.162;9.470;2023-01-19T05:32:03;8.73;;;4.53;;
55270;SDS011;41132;47.162;9.470;2023-01-19T05:34:28;7.75;;;4.70;;
55270;SDS011;41132;47.162;9.470;2023-01-19T05:36:54;9.68;;;4.80;;
55270;SDS011;41132;47.162;9.470;2023-01-19T05:39:19;8.13;;;4.75;;
55270;SDS011;41132;47.162;9.470;2023-01-19T06:02:26;9.15;;;4.78;;
55270;SDS011;41132;47.162;9.470;2023-01-19T07:01:47;9.93;;;4.53;;
55270;SDS011;41132;47.162;9.470;2023-01-19T07:04:12;6.97;;;4.03;;
55270;SDS011;41132;47.162;9.470;2023-01-19T07:06:39;9.18;;;4.18;;
55270;SDS011;41132;47.162;9.470;2023-01-19T07:30:07;10.50;;;4.75;;
55270;SDS011;41132;47.162;9.470;2023-01-19T07:32:33;9.10;;;5.43;;
55270;SDS011;41132;47.162;9.470;2023-01-19T07:37:34;7.88;;;4.60;;
55270;SDS011;41132;47.162;9.470;2023-01-19T07:39:59;12.18;;;4.22;;
55270;SDS011;41132;47.162;9.470;2023-01-19T07:47:35;9.88;;;5.50;;
55270;SDS011;41132;47.162;9.470;2023-01-19T07:57:49;8.65;;;4.15;;
55270;SDS011;41132;47.162;9.470;2023-01-19T08:05:26;6.88;;;3.88;;
55270;SDS011;41132;47.162;9.470;2023-01-19T08:07:56;8.27;;;3.58;;
55270;SDS011;41132;47.162;9.470;2023-01-19T08:31:03;7.97;;;3.50;;
55270;SDS011;41132;47.162;9.470;2023-01-19T08:46:24;9.48;;;3.85;;
55270;SDS011;41132;47.162;9.470;2023-01-19T08:48:49;8.13;;;3.80;;
55270;SDS011;41132;47.162;9.470;2023-01-19T08:51:15;8.85;;;4.15;;
55270;SDS011;41132;47.162;9.470;2023-01-19T08:53:41;7.63;;;3.83;;
55270;SDS011;41132;47.162;9.470;2023-01-19T08:56:07;7.45;;;3.75;;
55270;SDS011;41132;47.162;9.470;2023-01-19T08:58:37;10.52;;;4.85;;
55270;SDS011;41132;47.162;9.470;2023-01-19T09:01:03;7.65;;;3.80;;
55270;SDS011;41132;47.162;9.470;2023-01-19T09:03:29;10.27;;;4.97;;
55270;SDS011;41132;47.162;9.470;2023-01-19T09:05:55;7.13;;;4.18;;
55270;SDS011;41132;47.162;9.470;2023-01-19T09:08:20;7.40;;;3.85;;
55270;SDS011;41132;47.162;9.470;2023-01-19T09:10:47;9.57;;;4.75;;
55270;SDS011;41132;47.162;9.470;2023-01-19T09:18:24;7.85;;;3.90;;
55270;SDS011;41132;47.162;9.470;2023-01-19T09:20:49;7.72;;;4.25;;
55270;SDS011;41132;47.162;9.470;2023-01-19T09:23:15;8.45;;;4.70;;
55270;SDS011;41132;47.162;9.470;2023-01-19T09:25:43;6.65;;;3.97;;
55270;SDS011;41132;47.162;9.470;2023-01-19T09:28:10;7.82;;;4.45;;
55270;SDS011;41132;47.162;9.470;2023-01-19T09:33:15;7.03;;;4.50;;
55270;SDS011;41132;47.162;9.470;2023-01-19T09:40:52;7.88;;;4.15;;
55270;SDS011;41132;47.162;9.470;2023-01-19T09:45:57;7.75;;;3.90;;
55270;SDS011;41132;47.162;9.470;2023-01-19T09:53:50;11.52;;;5.22;;
55270;SDS011;41132;47.162;9.470;2023-01-19T09:56:28;8.27;;;4.47;;
55270;SDS011;41132;47.162;9.470;2023-01-19T09:58:55;11.25;;;5.20;;
55270;SDS011;41132;47.162;9.470;2023-01-19T10:09:37;8.35;;;5.03;;
55270;SDS011;41132;47.162;9.470;2023-01-19T10:12:16;9.77;;;4.32;;
55270;SDS011;41132;47.162;9.470;2023-01-19T10:20:12;9.27;;;4.95;;
55270;SDS011;41132;47.162;9.470;2023-01-19T10:25:19;7.63;;;4.55;;
55270;SDS011;41132;47.162;9.470;2023-01-19T10:32:58;9.23;;;4.32;;
55270;SDS011;41132;47.162;9.470;2023-01-19T10:35:24;6.93;;;3.88;;
55270;SDS011;41132;47.162;9.470;2023-01-19T10:37:50;9.95;;;4.55;;
55270;SDS011;41132;47.162;9.470;2023-01-19T10:40:32;7.38;;;4.22;;
55270;SDS011;41132;47.162;9.470;2023-01-19T10:46:06;9.57;;;4.68;;
55270;SDS011;41132;47.162;9.470;2023-01-19T10:48:41;16.95;;;5.57;;
55270;SDS011;41132;47.162;9.470;2023-01-19T10:51:08;7.70;;;4.55;;
55270;SDS011;41132;47.162;9.470;2023-01-19T10:53:35;8.00;;;4.10;;
55270;SDS011;41132;47.162;9.470;2023-01-19T10:56:34;7.75;;;4.30;;
55270;SDS011;41132;47.162;9.470;2023-01-19T10:58:58;9.63;;;4.35;;
55270;SDS011;41132;47.162;9.470;2023-01-19T11:01:25;10.32;;;4.78;;
55270;SDS011;41132;47.162;9.470;2023-01-19T11:06:28;12.35;;;4.57;;
55270;SDS011;41132;47.162;9.470;2023-01-19T11:11:42;7.72;;;4.20;;
55270;SDS011;41132;47.162;9.470;2023-01-19T11:14:10;8.80;;;4.40;;
55270;SDS011;41132;47.162;9.470;2023-01-19T11:16:38;7.32;;;3.90;;
55270;SDS011;41132;47.162;9.470;2023-01-19T11:19:05;8.00;;;4.05;;
55270;SDS011;41132;47.162;9.470;2023-01-19T11:22:09;6.88;;;4.13;;
55270;SDS011;41132;47.162;9.470;2023-01-19T11:24:45;8.02;;;4.38;;
55270;SDS011;41132;47.162;9.470;2023-01-19T11:27:11;9.07;;;5.07;;
55270;SDS011;41132;47.162;9.470;2023-01-19T11:29:44;9.68;;;4.70;;
55270;SDS011;41132;47.162;9.470;2023-01-19T11:32:18;7.82;;;4.03;;
55270;SDS011;41132;47.162;9.470;2023-01-19T11:34:46;7.13;;;3.78;;
55270;SDS011;41132;47.162;9.470;2023-01-19T11:39:44;7.93;;;4.97;;
55270;SDS011;41132;47.162;9.470;2023-01-19T11:42:11;7.97;;;4.28;;
55270;SDS011;41132;47.162;9.470;2023-01-19T11:44:42;8.57;;;4.45;;
55270;SDS011;41132;47.162;9.470;2023-01-19T11:47:16;8.45;;;4.35;;
55270;SDS011;41132;47.162;9.470;2023-01-19T11:52:46;10.02;;;4.63;;
55270;SDS011;41132;47.162;9.470;2023-01-19T11:55:21;9.48;;;4.60;;
55270;SDS011;41132;47.162;9.470;2023-01-19T11:57:51;7.32;;;3.85;;
55270;SDS011;41132;47.162;9.470;2023-01-19T12:03:16;7.60;;;4.38;;
55270;SDS011;41132;47.162;9.470;2023-01-19T12:10:54;6.72;;;3.92;;
55270;SDS011;41132;47.162;9.470;2023-01-19T12:23:50;6.53;;;3.10;;
55270;SDS011;41132;47.162;9.470;2023-01-19T12:31:35;7.50;;;4.18;;
55270;SDS011;41132;47.162;9.470;2023-01-19T12:44:23;8.43;;;4.43;;
55270;SDS011;41132;47.162;9.470;2023-01-19T13:23:21;11.68;;;4.85;;
55270;SDS011;41132;47.162;9.470;2023-01-19T13:26:03;7.88;;;4.07;;
55270;SDS011;41132;47.162;9.470;2023-01-19T13:28:34;8.77;;;3.70;;
55270;SDS011;41132;47.162;9.470;2023-01-19T13:31:04;9.93;;;4.53;;
55270;SDS011;41132;47.162;9.470;2023-01-19T14:32:59;7.80;;;3.78;;
55270;SDS011;41132;47.162;9.470;2023-01-19T14:35:24;9.27;;;4.13;;
55270;SDS011;41132;47.162;9.470;2023-01-19T14:37:50;9.85;;;4.38;;
55270;SDS011;41132;47.162;9.470;2023-01-19T14:40:18;7.95;;;4.30;;
55270;SDS011;41132;47.162;9.470;2023-01-19T14:42:52;8.80;;;4.22;;
55270;SDS011;41132;47.162;9.470;2023-01-19T14:47:59;8.70;;;3.75;;
55270;SDS011;41132;47.162;9.470;2023-01-19T14:53:17;8.38;;;4.47;;
55270;SDS011;41132;47.162;9.470;2023-01-19T15:01:00;7.55;;;4.25;;
55270;SDS011;41132;47.162;9.470;2023-01-19T15:08:37;10.40;;;4.80;;
55270;SDS011;41132;47.162;9.470;2023-01-19T15:11:20;8.30;;;4.63;;
55270;SDS011;41132;47.162;9.470;2023-01-19T15:13:48;8.98;;;4.40;;
55270;SDS011;41132;47.162;9.470;2023-01-19T15:16:14;9.95;;;4.72;;
55270;SDS011;41132;47.162;9.470;2023-01-19T15:26:25;9.07;;;4.57;;
55270;SDS011;41132;47.162;9.470;2023-01-19T15:28:51;10.23;;;4.35;;
55270;SDS011;41132;47.162;9.470;2023-01-19T16:12:39;13.38;;;5.38;;
55270;SDS011;41132;47.162;9.470;2023-01-19T16:15:05;10.55;;;5.43;;
55270;SDS011;41132;47.162;9.470;2023-01-19T16:20:06;8.77;;;4.53;;
55270;SDS011;41132;47.162;9.470;2023-01-19T16:22:32;9.40;;;5.47;;
55270;SDS011;41132;47.162;9.470;2023-01-19T16:24:58;10.07;;;6.10;;
55270;SDS011;41132;47.162;9.470;2023-01-19T16:27:23;9.23;;;4.80;;
55270;SDS011;41132;47.162;9.470;2023-01-19T16:29:49;10.57;;;4.63;;
55270;SDS011;41132;47.162;9.470;2023-01-19T16:32:15;7.93;;;4.57;;
55270;SDS011;41132;47.162;9.470;2023-01-19T16:37:16;5.72;;;2.70;;
55270;SDS011;41132;47.162;9.470;2023-01-19T16:39:41;5.55;;;2.63;;
55270;SDS011;41132;47.162;9.470;2023-01-19T16:42:09;7.13;;;3.03;;
55270;SDS011;41132;47.162;9.470;2023-01-19T16:44:35;6.75;;;3.17;;
55270;SDS011;41132;47.162;9.470;2023-01-19T16:47:00;8.25;;;3.17;;
55270;SDS011;41132;47.162;9.470;2023-01-19T16:49:26;5.40;;;2.53;;
55270;SDS011;41132;47.162;9.470;2023-01-19T16:51:51;5.68;;;2.78;;
55270;SDS011;41132;47.162;9.470;2023-01-19T16:54:19;5.97;;;2.35;;
55270;SDS011;41132;47.162;9.470;2023-01-19T16:56:47;6.53;;;2.50;;
55270;SDS011;41132;47.162;9.470;2023-01-19T16:59:13;5.70;;;2.88;;
55270;SDS011;41132;47.162;9.470;2023-01-19T17:01:41;5.47;;;2.17;;
55270;SDS011;41132;47.162;9.470;2023-01-19T17:04:08;5.60;;;2.47;;
55270;SDS011;41132;47.162;9.470;2023-01-19T17:06:34;8.05;;;2.85;;
55270;SDS011;41132;47.162;9.470;2023-01-19T17:08:59;5.68;;;2.80;;
55270;SDS011;41132;47.162;9.470;2023-01-19T17:11:26;7.63;;;3.10;;
55270;SDS011;41132;47.162;9.470;2023-01-19T17:13:53;6.97;;;2.72;;
55270;SDS011;41132;47.162;9.470;2023-01-19T17:16:22;5.65;;;2.25;;
55270;SDS011;41132;47.162;9.470;2023-01-19T17:18:48;5.38;;;2.28;;
55270;SDS011;41132;47.162;9.470;2023-01-19T17:21:14;5.80;;;2.15;;
55270;SDS011;41132;47.162;9.470;2023-01-19T17:23:42;6.30;;;2.53;;
55270;SDS011;41132;47.162;9.470;2023-01-19T17:26:09;5.22;;;2.30;;
55270;SDS011;41132;47.162;9.470;2023-01-19T17:28:34;5.07;;;2.13;;
55270;SDS011;41132;47.162;9.470;2023-01-19T17:31:07;5.53;;;1.85;;
55270;SDS011;41132;47.162;9.470;2023-01-19T17:33:37;4.72;;;1.88;;
55270;SDS011;41132;47.162;9.470;2023-01-19T17:36:05;5.30;;;2.00;;
55270;SDS011;41132;47.162;9.470;2023-01-19T17:38:33;7.18;;;1.80;;
55270;SDS011;41132;47.162;9.470;2023-01-19T17:40:58;6.28;;;2.05;;
55270;SDS011;41132;47.162;9.470;2023-01-19T17:43:24;4.70;;;2.22;;
55270;SDS011;41132;47.162;9.470;2023-01-19T17:45:49;3.95;;;1.83;;
55270;SDS011;41132;47.162;9.470;2023-01-19T17:48:14;3.40;;;1.63;;
55270;SDS011;41132;47.162;9.470;2023-01-19T17:50:41;5.80;;;2.00;;
55270;SDS011;41132;47.162;9.470;2023-01-19T17:53:07;5.75;;;2.20;;
55270;SDS011;41132;47.162;9.470;2023-01-19T17:55:34;3.92;;;1.83;;
55270;SDS011;41132;47.162;9.470;2023-01-19T17:57:59;3.60;;;1.58;;
55270;SDS011;41132;47.162;9.470;2023-01-19T18:00:25;3.80;;;1.88;;
55270;SDS011;41132;47.162;9.470;2023-01-19T18:02:51;5.22;;;1.80;;
55270;SDS011;41132;47.162;9.470;2023-01-19T18:05:17;3.72;;;1.60;;
55270;SDS011;41132;47.162;9.470;2023-01-19T18:07:43;4.90;;;2.08;;
55270;SDS011;41132;47.162;9.470;2023-01-19T18:18:56;4.53;;;1.98;;
55270;SDS011;41132;47.162;9.470;2023-01-19T18:21:22;5.28;;;1.88;;
55270;SDS011;41132;47.162;9.470;2023-01-19T18:23:49;3.90;;;1.70;;
55270;SDS011;41132;47.162;9.470;2023-01-19T18:26:16;5.10;;;2.33;;
55270;SDS011;41132;47.162;9.470;2023-01-19T18:31:18;7.25;;;3.10;;
55270;SDS011;41132;47.162;9.470;2023-01-19T18:33:45;6.28;;;2.90;;
55270;SDS011;41132;47.162;9.470;2023-01-19T18:36:11;6.28;;;3.25;;
55270;SDS011;41132;47.162;9.470;2023-01-19T18:38:37;6.95;;;2.38;;
55270;SDS011;41132;47.162;9.470;2023-01-19T18:41:07;6.53;;;3.00;;
55270;SDS011;41132;47.162;9.470;2023-01-19T18:43:35;6.90;;;2.75;;
55270;SDS011;41132;47.162;9.470;2023-01-19T18:46:01;4.15;;;1.88;;
55270;SDS011;41132;47.162;9.470;2023-01-19T18:48:26;4.63;;;2.20;;
55270;SDS011;41132;47.162;9.470;2023-01-19T18:50:52;4.65;;;1.95;;
55270;SDS011;41132;47.162;9.470;2023-01-19T18:53:17;3.50;;;1.55;;
55270;SDS011;41132;47.162;9.470;2023-01-19T18:55:52;3.75;;;1.50;;
55270;SDS011;41132;47.162;9.470;2023-01-19T18:58:22;2.95;;;1.30;;
55270;SDS011;41132;47.162;9.470;2023-01-19T19:18:57;4.10;;;1.90;;
55270;SDS011;41132;47.162;9.470;2023-01-19T19:36:54;6.97;;;2.78;;
55270;SDS011;41132;47.162;9.470;2023-01-19T19:54:50;11.32;;;4.95;;
55270;SDS011;41132;47.162;9.470;2023-01-19T21:20:15;7.03;;;3.08;;
55270;SDS011;41132;47.162;9.470;2023-01-19T22:16:59;5.53;;;2.70;;
55270;SDS011;41132;47.162;9.470;2023-01-19T22:34:55;7.30;;;2.85;;
55270;SDS011;41132;47.162;9.470;2023-01-19T22:37:21;6.43;;;2.90;;
55270;SDS011;41132;47.162;9.470;2023-01-19T22:44:56;6.18;;;2.90;;
55270;SDS011;41132;47.162;9.470;2023-01-19T22:57:42;7.25;;;2.92;;
55270;SDS011;41132;47.162;9.470;2023-01-19T23:00:08;5.95;;;3.00;;
55270;SDS011;41132;47.162;9.470;2023-01-19T23:28:25;6.35;;;2.60;;
